Portada
METAR-TAF:

METAR-TAF

Aeroports :

Katherine, Austràlia

latitud: 14-26S, longitud: 132-16E, altitud: 108 m

Observació

L'informe es va fer fa 19 minuts, a les 14:00 UTC
Vent 4 kt del Sud-Est
Temperatura 24°C
Humitat 61%
Pressió 1011 hPa
Visibilitat 10 km o més

METAR: YPTN 071400Z AUTO 13004KT 9999 // NCD 24/16 Q1011

Hora: 23:49 (14:19 UTC)

Pronòstic

L'informe es va fer fa 9 hores i 41 minuts, a les 04:38 UTC
Pronòstic vàlid del 07 a les 06 UTC al 08 a les 06 UTC
Vent 8 kt del Est/Sud-Est
Visibilitat 10 km o més
sense núvols per sota de 1500 mi sense presència de cumulonimbus.
A partir de les 07 a les 2100 UTC
Vent 3 kt del Est
Visibilitat 10 km o més
Escasses núvols a una alçada de 2000 ft
A partir de les 08 a les 0000 UTC
Vent 8 kt del Est
Visibilitat 10 km o més
Núvols disperses a una alçada de 3500 ft

TAF: YPTN 070438Z 0706/0806 12008KT CAVOK FM072100 09003KT 9999 FEW020 FM080000 10008KT 9999 SCT035

Observacions i pronòstics meteorològics de més de 4000 aeroports (METAR i TAF).

Les estacions disponibles són els punts grocs i vermells al mapa.

Posi el ratolí al punt desitjat per veure el nom de l'estació.

Feu clic per veure les observacions i els pronòstics meteorològics.

Per canviar el mapa: feu clic els botons verds amb una creu de color negre per apropar; al botó verd amb un guió per allunyar la imatge; o en les fletxes verdes per a mapes adjacents.


METAR-TAF: